Time;durP1;ratioP1;P1;durP2;ratioP2;P2;SDS_P1;SDS_P2;PMS_P1;PMS_P2;Temp;Humidity;BMP_temperature;BMP_pressure;BME280_temperature;BME280_humidity;BME280_pressure;Samples;Min_cycle;Max_cycle;Signal;HPM_P1;HPM_P2
2022/07/24 00:02:00;;;;;;;12.78;5.83;;;;;;;16.89;100.00;100045.41;1683245;85;21646;-68
2022/07/24 00:04:26;;;;;;;7.00;5.55;;;;;;;16.89;100.00;100053.38;1683586;85;21103;-67
2022/07/24 00:06:54;;;;;;;9.03;6.37;;;;;;;16.87;100.00;100049.96;1683554;85;21521;-67
2022/07/24 00:09:20;;;;;;;8.45;5.87;;;;;;;16.85;100.00;100045.22;1683401;85;21065;-66
2022/07/24 00:11:48;;;;;;;7.20;6.15;;;;;;;16.85;100.00;100045.70;1686188;85;21058;-68
2022/07/24 00:14:16;;;;;;;7.78;6.37;;;;;;;16.83;100.00;100045.78;1686442;85;21109;-68
2022/07/24 00:16:43;;;;;;;9.43;6.47;;;;;;;16.80;100.00;100042.48;1686571;85;21113;-68
2022/07/24 00:19:10;;;;;;;14.85;6.65;;;;;;;16.77;100.00;100035.50;1686452;85;21026;-69
2022/07/24 00:21:37;;;;;;;7.95;5.80;;;;;;;16.73;100.00;100038.84;1686487;85;21518;-68
2022/07/24 00:24:06;;;;;;;10.00;6.17;;;;;;;16.71;100.00;100034.59;1686538;85;21252;-69
2022/07/24 00:26:33;;;;;;;8.25;5.78;;;;;;;16.67;100.00;100033.06;1686617;83;21128;-67
2022/07/24 00:29:01;;;;;;;7.45;5.80;;;;;;;16.65;100.00;100032.31;1686625;85;21601;-68
2022/07/24 00:31:27;;;;;;;8.20;5.22;;;;;;;16.63;100.00;100028.89;1686769;85;21084;-68
2022/07/24 00:33:53;;;;;;;8.20;5.60;;;;;;;16.60;100.00;100031.75;1686651;85;21049;-67
2022/07/24 00:36:22;;;;;;;8.60;5.83;;;;;;;16.54;100.00;100025.88;1686492;85;21550;-67
2022/07/24 00:38:48;;;;;;;10.00;6.25;;;;;;;16.54;100.00;100021.89;1686679;85;21535;-66
2022/07/24 00:41:15;;;;;;;7.53;5.75;;;;;;;16.52;100.00;100027.78;1686416;85;21077;-68
2022/07/24 00:44:12;;;;;;;8.68;6.10;;;;;;;16.50;100.00;100024.84;1686617;85;21057;-67
2022/07/24 00:46:40;;;;;;;10.53;5.97;;;;;;;16.47;100.00;100029.00;1686400;85;21117;-67
2022/07/24 00:49:10;;;;;;;7.35;6.20;;;;;;;16.43;100.00;100024.38;1686505;85;21148;-67
2022/07/24 00:51:37;;;;;;;8.20;5.85;;;;;;;16.44;100.00;100015.92;1686625;85;21065;-66
2022/07/24 00:54:06;;;;;;;13.88;6.37;;;;;;;16.41;100.00;100014.31;1686545;85;21120;-69
2022/07/24 00:56:32;;;;;;;6.08;5.17;;;;;;;16.38;100.00;100014.52;1685940;85;21011;-67
2022/07/24 00:59:03;;;;;;;7.22;5.28;;;;;;;16.37;100.00;100016.78;1687623;83;21080;-67
2022/07/24 01:01:30;;;;;;;6.70;5.05;;;;;;;16.38;100.00;100017.17;1686109;85;21181;-67
2022/07/24 01:03:58;;;;;;;5.95;5.35;;;;;;;16.36;100.00;100019.07;1685300;85;21625;-67
2022/07/24 01:06:24;;;;;;;8.20;5.33;;;;;;;16.35;100.00;100022.66;1684904;85;21058;-68
2022/07/24 01:08:52;;;;;;;9.83;6.08;;;;;;;16.32;100.00;100027.70;1684746;85;21081;-67
2022/07/24 01:11:19;;;;;;;6.10;5.50;;;;;;;16.33;100.00;100028.55;1682601;85;21097;-67
2022/07/24 01:13:48;;;;;;;8.45;5.65;;;;;;;16.32;100.00;100028.17;1681821;85;21172;-67
2022/07/24 01:16:16;;;;;;;7.75;6.08;;;;;;;16.31;100.00;100031.77;1681684;85;21054;-66
2022/07/24 01:18:43;;;;;;;8.95;6.92;;;;;;;16.31;100.00;100033.97;1681981;85;21046;-66
2022/07/24 01:21:10;;;;;;;10.60;6.35;;;;;;;16.28;100.00;100035.47;1681979;85;21141;-66
2022/07/24 01:23:38;;;;;;;8.45;6.30;;;;;;;16.28;100.00;100042.59;1682137;85;21085;-66
2022/07/24 01:26:08;;;;;;;7.55;6.55;;;;;;;16.25;100.00;100045.45;1681899;85;21165;-67
2022/07/24 01:28:35;;;;;;;11.12;6.37;;;;;;;16.22;100.00;100048.28;1682366;85;21209;-66
2022/07/24 01:31:04;;;;;;;10.68;7.55;;;;;;;16.19;100.00;100047.16;1682016;85;21106;-67
2022/07/24 01:33:32;;;;;;;15.05;7.45;;;;;;;16.17;100.00;100047.72;1682111;85;21069;-66
2022/07/24 01:35:58;;;;;;;7.83;6.78;;;;;;;16.13;100.00;100045.26;1682175;85;21073;-67
2022/07/24 01:38:25;;;;;;;12.43;7.00;;;;;;;16.13;100.00;100047.91;1682280;85;21332;-66
2022/07/24 01:40:52;;;;;;;7.67;6.55;;;;;;;16.12;100.00;100051.50;1682000;85;21062;-65
2022/07/24 01:43:19;;;;;;;8.43;6.20;;;;;;;16.12;100.00;100047.52;1682271;85;21023;-66
2022/07/24 01:45:46;;;;;;;7.87;6.15;;;;;;;16.11;100.00;100045.83;1682360;85;21062;-66
2022/07/24 01:48:13;;;;;;;6.53;5.67;;;;;;;16.09;100.00;100042.41;1682113;85;21148;-67
2022/07/24 01:50:41;;;;;;;10.45;6.20;;;;;;;16.06;100.00;100035.11;1682312;85;21363;-67
2022/07/24 01:53:08;;;;;;;11.30;7.47;;;;;;;16.03;100.00;100037.45;1682007;85;21003;-66
2022/07/24 01:55:35;;;;;;;8.95;6.62;;;;;;;16.01;100.00;100040.71;1682157;85;21069;-66
2022/07/24 01:58:02;;;;;;;8.48;6.47;;;;;;;15.99;100.00;100041.72;1682091;85;21077;-66
2022/07/24 02:00:28;;;;;;;8.05;5.95;;;;;;;15.94;100.00;100042.00;1682045;85;21054;-67
2022/07/24 02:02:55;;;;;;;10.35;6.42;;;;;;;15.91;100.00;100048.36;1681886;85;21163;-67
2022/07/24 02:05:23;;;;;;;7.92;7.00;;;;;;;15.89;100.00;100045.41;1682231;85;21098;-66
2022/07/24 02:08:00;;;;;;;12.30;7.90;;;;;;;15.88;100.00;100050.36;1682298;85;21105;-67
2022/07/24 02:10:27;;;;;;;9.55;7.30;;;;;;;15.87;100.00;100049.96;1682615;85;21069;-68
2022/07/24 02:12:55;;;;;;;10.30;7.22;;;;;;;15.84;100.00;100056.80;1685211;85;21094;-66
2022/07/24 02:15:22;;;;;;;8.60;7.17;;;;;;;15.83;100.00;100055.10;1685120;85;21928;-66
2022/07/24 02:17:54;;;;;;;13.48;6.80;;;;;;;15.82;100.00;100052.05;1685146;85;22119;-67
2022/07/24 02:20:20;;;;;;;11.28;7.55;;;;;;;15.82;100.00;100050.72;1685307;85;21120;-66
2022/07/24 02:22:48;;;;;;;10.35;6.85;;;;;;;15.80;100.00;100050.80;1686054;85;21007;-67
2022/07/24 02:25:15;;;;;;;9.95;6.50;;;;;;;15.79;100.00;100047.78;1686460;83;21058;-66
2022/07/24 02:27:41;;;;;;;11.00;6.28;;;;;;;15.79;100.00;100049.59;1686655;85;21582;-67
2022/07/24 02:30:15;;;;;;;8.88;6.53;;;;;;;15.80;100.00;100052.61;1686473;85;21104;-66
2022/07/24 02:32:42;;;;;;;9.30;6.25;;;;;;;15.80;100.00;100053.94;1686500;85;21057;-65
2022/07/24 02:35:10;;;;;;;12.10;6.33;;;;;;;15.80;100.00;100048.62;1686585;85;21081;-66
2022/07/24 02:37:40;;;;;;;10.95;6.58;;;;;;;15.82;100.00;100053.38;1686555;85;21131;-67
2022/07/24 02:40:08;;;;;;;9.83;6.53;;;;;;;15.83;100.00;100049.79;1691484;84;21237;-66
2022/07/24 02:42:36;;;;;;;8.45;6.62;;;;;;;15.85;100.00;100048.75;1691048;84;21233;-66
2022/07/24 02:45:04;;;;;;;10.80;6.75;;;;;;;15.88;100.00;100050.36;1691064;84;21055;-67
2022/07/24 02:47:33;;;;;;;10.65;7.40;;;;;;;15.90;100.00;100045.81;1691588;84;21044;-67
2022/07/24 02:49:59;;;;;;;11.12;6.53;;;;;;;15.92;100.00;100054.55;1691372;84;21020;-67
2022/07/24 02:52:26;;;;;;;9.60;6.78;;;;;;;15.93;100.00;100048.27;1691205;84;21227;-68
2022/07/24 02:54:53;;;;;;;12.93;7.42;;;;;;;15.96;100.00;100046.75;1691221;84;21078;-67
2022/07/24 02:57:19;;;;;;;8.35;6.58;;;;;;;16.00;100.00;100036.33;1690947;84;21075;-66
2022/07/24 02:59:49;;;;;;;12.60;7.33;;;;;;;16.04;100.00;100039.19;1691052;84;21071;-66
2022/07/24 03:02:15;;;;;;;9.40;7.53;;;;;;;16.12;100.00;100038.22;1691028;84;21115;-67
2022/07/24 03:04:43;;;;;;;11.28;6.92;;;;;;;16.21;100.00;100041.27;1690928;84;21148;-66
2022/07/24 03:07:10;;;;;;;8.33;7.00;;;;;;;16.31;100.00;100042.39;1691116;84;21062;-67
2022/07/24 03:09:36;;;;;;;13.28;7.22;;;;;;;16.38;100.00;100034.45;1690958;84;21114;-66
2022/07/24 03:12:06;;;;;;;7.45;5.87;;;;;;;16.53;100.00;100037.45;1690036;84;21077;-67
2022/07/24 03:14:33;;;;;;;7.78;6.00;;;;;;;16.67;100.00;100035.72;1691100;84;21690;-66
2022/07/24 03:17:00;;;;;;;12.30;6.72;;;;;;;16.78;100.00;100034.08;1690964;84;21244;-68
2022/07/24 03:19:26;;;;;;;8.28;6.72;;;;;;;16.91;100.00;100036.84;1691119;84;21627;-68
2022/07/24 03:21:55;;;;;;;10.72;6.55;;;;;;;17.08;100.00;100036.22;1690874;84;21051;-66
2022/07/24 03:24:21;;;;;;;13.20;7.33;;;;;;;17.22;100.00;100032.17;1690884;84;21104;-67
2022/07/24 03:26:48;;;;;;;9.95;6.78;;;;;;;17.39;100.00;100034.58;1691043;84;21021;-67
2022/07/24 03:29:16;;;;;;;9.83;6.22;;;;;;;17.57;100.00;100028.95;1690889;84;21534;-68
2022/07/24 03:31:43;;;;;;;10.03;7.05;;;;;;;17.77;100.00;100031.11;1691141;84;21052;-67
2022/07/24 03:34:11;;;;;;;9.48;7.50;;;;;;;17.98;100.00;100030.63;1691009;84;21099;-68
2022/07/24 03:36:38;;;;;;;9.93;7.60;;;;;;;18.19;100.00;100028.27;1690976;84;21091;-65
2022/07/24 03:39:05;;;;;;;10.88;7.75;;;;;;;18.42;100.00;100022.64;1691214;84;21091;-67
2022/07/24 03:41:32;;;;;;;11.63;7.80;;;;;;;18.69;100.00;100024.30;1691067;84;21160;-67
2022/07/24 03:44:00;;;;;;;13.83;8.20;;;;;;;19.13;100.00;100024.20;1691080;84;21017;-68
2022/07/24 03:46:28;;;;;;;11.50;7.55;;;;;;;19.75;100.00;100031.14;1673619;85;21070;-67
2022/07/24 03:48:56;;;;;;;10.75;7.72;;;;;;;20.33;98.99;100028.76;1673856;85;21056;-66
2022/07/24 03:51:23;;;;;;;11.85;7.03;;;;;;;20.93;96.11;100017.77;1691049;84;21016;-66
2022/07/24 03:53:50;;;;;;;12.80;6.87;;;;;;;21.46;91.04;100027.20;1681275;84;21245;-65
2022/07/24 03:56:17;;;;;;;12.10;6.55;;;;;;;21.86;87.24;100019.81;1687760;84;21604;-67
2022/07/24 03:58:44;;;;;;;9.10;6.15;;;;;;;22.22;85.18;100015.44;1678643;85;22078;-66
2022/07/24 04:01:11;;;;;;;9.28;6.12;;;;;;;22.54;84.09;100019.30;1676998;85;21056;-66
2022/07/24 04:03:37;;;;;;;10.38;6.80;;;;;;;22.89;81.46;100019.30;1676815;85;21085;-67
2022/07/24 04:06:06;;;;;;;9.40;6.40;;;;;;;23.14;80.24;100016.11;1676949;85;21372;-66
2022/07/24 04:08:33;;;;;;;8.88;6.47;;;;;;;23.40;79.21;100015.58;1674353;85;21061;-66
2022/07/24 04:11:00;;;;;;;10.32;5.87;;;;;;;23.69;78.39;100010.15;1675563;85;21057;-67
2022/07/24 04:13:29;;;;;;;9.68;6.60;;;;;;;23.95;76.62;100013.11;1666412;85;21122;-67
2022/07/24 04:15:55;;;;;;;7.78;6.00;;;;;;;24.26;75.68;100008.82;1667405;85;21125;-66
2022/07/24 04:18:22;;;;;;;8.95;5.85;;;;;;;24.54;73.96;100002.97;1670975;85;21274;-66
2022/07/24 04:20:49;;;;;;;8.33;6.10;;;;;;;24.82;73.10;100003.80;1670711;85;21059;-67
2022/07/24 04:23:17;;;;;;;10.68;6.05;;;;;;;25.04;72.07;100007.06;1670341;85;21630;-67
2022/07/24 04:25:44;;;;;;;18.52;7.40;;;;;;;25.37;70.59;100007.39;1670664;85;21102;-66
2022/07/24 04:28:10;;;;;;;11.25;7.00;;;;;;;25.59;69.49;100005.56;1670363;85;21149;-66
2022/07/24 04:30:38;;;;;;;12.33;6.78;;;;;;;25.79;67.88;100010.27;1670346;85;21666;-66
2022/07/24 04:33:04;;;;;;;9.68;6.22;;;;;;;25.97;67.08;100002.13;1668739;85;21046;-67
2022/07/24 04:35:32;;;;;;;9.13;5.62;;;;;;;26.12;66.40;100000.54;1670457;85;21544;-68
2022/07/24 04:37:59;;;;;;;11.95;5.50;;;;;;;26.24;64.39;100003.80;1670482;85;21598;-67
2022/07/24 04:40:25;;;;;;;9.25;4.70;;;;;;;26.31;64.12;100004.01;1664023;85;21153;-68
2022/07/24 04:42:52;;;;;;;7.47;4.40;;;;;;;26.33;63.95;100002.00;1666018;85;21267;-68
2022/07/24 04:45:20;;;;;;;6.80;4.25;;;;;;;26.37;63.46;99995.27;1666677;84;21117;-67
2022/07/24 04:47:46;;;;;;;6.85;4.37;;;;;;;26.41;63.13;99999.34;1666049;85;21114;-70
2022/07/24 04:50:14;;;;;;;6.80;4.25;;;;;;;26.52;62.50;99993.63;1666445;85;21093;-67
2022/07/24 04:52:41;;;;;;;8.15;5.12;;;;;;;26.64;62.51;99986.13;1677079;85;22256;-67
2022/07/24 04:55:09;;;;;;;9.88;5.28;;;;;;;26.84;61.32;99983.95;1672082;85;21211;-68
2022/07/24 04:57:36;;;;;;;7.25;4.37;;;;;;;27.02;61.01;99976.23;1677808;85;21073;-67
2022/07/24 05:00:05;;;;;;;7.17;4.62;;;;;;;27.28;60.20;99975.59;1678419;85;21102;-68
2022/07/24 05:02:32;;;;;;;6.25;3.62;;;;;;;27.50;59.56;99974.59;1678350;85;21125;-68
2022/07/24 05:04:59;;;;;;;5.50;3.98;;;;;;;27.77;59.25;99971.52;1678302;85;21093;-67
2022/07/24 05:07:25;;;;;;;5.37;3.35;;;;;;;27.95;57.90;99973.17;1677951;85;21614;-69
2022/07/24 05:09:53;;;;;;;4.45;3.08;;;;;;;28.02;56.97;99971.46;1672652;84;21114;-68
2022/07/24 05:12:20;;;;;;;4.87;3.42;;;;;;;28.07;56.67;99966.88;1673055;84;21094;-68
2022/07/24 05:14:46;;;;;;;5.75;3.00;;;;;;;28.19;56.71;99966.34;1674626;84;21550;-68
2022/07/24 05:17:14;;;;;;;4.15;3.02;;;;;;;28.29;56.10;99959.36;1664278;84;21518;-69
2022/07/24 05:19:42;;;;;;;4.62;3.20;;;;;;;28.39;55.62;99955.07;1653861;84;21081;-68
2022/07/24 05:22:10;;;;;;;3.52;3.10;;;;;;;28.56;55.96;99947.76;1668573;84;21054;-69
2022/07/24 05:26:26;;;;;;;5.97;3.72;;;;;;;28.83;54.98;99949.13;1813273;79;22793;-69
2022/07/24 05:28:53;;;;;;;5.28;2.90;;;;;;;28.94;55.04;99947.36;1783023;80;21119;-69
2022/07/24 05:31:19;;;;;;;5.45;2.90;;;;;;;28.97;54.13;99942.92;1779024;80;21950;-68
2022/07/24 05:33:46;;;;;;;6.05;3.02;;;;;;;29.06;55.34;99945.89;1762466;80;20992;-69
2022/07/24 05:36:13;;;;;;;4.58;2.90;;;;;;;29.28;54.64;99944.72;1758520;80;21084;-69
2022/07/24 05:38:43;;;;;;;4.47;3.00;;;;;;;29.33;53.19;99946.37;1749389;80;21073;-68
2022/07/24 05:41:11;;;;;;;3.65;2.70;;;;;;;29.24;49.19;99940.69;1777633;80;21076;-68
2022/07/24 05:43:40;;;;;;;7.23;2.93;;;;;;;28.96;49.31;99940.37;1767299;80;21767;-68
2022/07/24 05:46:06;;;;;;;5.20;2.83;;;;;;;28.75;50.41;99941.03;1764538;80;21014;-68
2022/07/24 05:48:33;;;;;;;3.67;2.27;;;;;;;28.74;51.43;99936.66;1749646;80;20978;-68
2022/07/24 05:51:00;;;;;;;3.12;2.37;;;;;;;28.87;49.84;99936.88;1784933;80;21061;-68
2022/07/24 05:53:27;;;;;;;3.22;2.37;;;;;;;28.86;48.90;99936.56;1783105;80;21079;-69
2022/07/24 05:55:54;;;;;;;5.33;2.00;;;;;;;28.89;48.90;99934.83;1776346;80;21139;-68
2022/07/24 05:58:21;;;;;;;3.30;2.02;;;;;;;28.97;48.03;99937.49;1783022;80;21020;-68
2022/07/24 06:00:48;;;;;;;2.83;1.90;;;;;;;29.05;46.63;99929.28;1780324;80;21049;-68
2022/07/24 06:03:15;;;;;;;4.85;2.00;;;;;;;29.19;47.13;99930.91;1772445;80;21029;-68
2022/07/24 06:05:42;;;;;;;7.20;2.12;;;;;;;29.37;46.73;99928.71;1762213;80;21018;-68
2022/07/24 06:08:08;;;;;;;3.08;2.27;;;;;;;29.40;46.19;99927.00;1749844;80;21887;-69
2022/07/24 06:10:35;;;;;;;5.95;2.33;;;;;;;29.60;43.93;99930.53;1783688;80;21040;-68
2022/07/24 06:13:02;;;;;;;2.85;1.95;;;;;;;29.63;43.77;99926.95;1787346;80;21084;-68
2022/07/24 06:15:30;;;;;;;3.20;2.00;;;;;;;29.64;43.57;99920.48;1757042;80;22380;-67
2022/07/24 06:17:56;;;;;;;4.15;2.10;;;;;;;29.84;43.44;99923.52;1755885;80;21052;-68
2022/07/24 06:20:23;;;;;;;4.10;2.02;;;;;;;29.99;42.93;99929.45;1756555;80;21147;-67
2022/07/24 06:22:51;;;;;;;4.40;2.55;;;;;;;30.12;43.15;99933.72;1749887;81;21564;-67
2022/07/24 06:25:20;;;;;;;3.30;2.10;;;;;;;30.34;43.07;99931.92;1705705;83;21117;-71
2022/07/24 06:27:49;;;;;;;2.83;1.77;;;;;;;30.52;40.50;99928.80;1699787;83;21092;-69
2022/07/24 06:30:23;;;;;;;4.08;1.70;;;;;;;30.61;39.76;99933.08;1702699;83;21025;-69
2022/07/24 06:32:51;;;;;;;3.87;2.08;;;;;;;30.48;39.75;99932.42;1702101;83;21318;-68
2022/07/24 06:35:18;;;;;;;4.55;2.05;;;;;;;30.37;40.43;99928.84;1682119;83;21072;-69
2022/07/24 06:37:45;;;;;;;4.25;1.85;;;;;;;30.49;40.57;99930.55;1717249;83;21113;-68
2022/07/24 06:40:12;;;;;;;5.25;2.00;;;;;;;30.72;40.00;99932.58;1711632;83;21065;-68
2022/07/24 06:42:40;;;;;;;5.47;2.30;;;;;;;30.72;39.38;99931.74;1698925;83;21266;-69
2022/07/24 06:45:09;;;;;;;9.88;2.30;;;;;;;30.42;40.30;99928.27;1695713;83;21928;-69
2022/07/24 06:47:36;;;;;;;6.78;1.98;;;;;;;30.25;40.20;99939.33;1714542;83;21049;-66
2022/07/24 06:50:03;;;;;;;3.58;2.20;;;;;;;30.10;40.44;99933.89;1716323;83;21025;-69
2022/07/24 06:52:30;;;;;;;3.25;2.22;;;;;;;29.93;40.81;99930.20;1709929;83;21540;-69
2022/07/24 06:54:57;;;;;;;5.35;1.90;;;;;;;29.77;41.29;99926.66;1669727;85;21049;-68
2022/07/24 06:57:25;;;;;;;3.20;1.80;;;;;;;29.77;41.77;99919.01;1669566;85;21129;-67
2022/07/24 06:59:53;;;;;;;5.33;2.10;;;;;;;29.97;41.74;99924.20;1681955;85;21113;-68
2022/07/24 07:02:21;;;;;;;5.22;2.12;;;;;;;30.14;40.65;99920.80;1682972;84;22138;-68
2022/07/24 07:04:48;;;;;;;8.23;2.27;;;;;;;30.15;40.87;99922.47;1682525;85;21113;-68
2022/07/24 07:07:15;;;;;;;5.53;2.12;;;;;;;30.18;41.46;99920.72;1682607;85;21660;-68
2022/07/24 07:09:43;;;;;;;2.75;2.00;;;;;;;30.29;41.40;99918.08;1682694;85;21058;-67
2022/07/24 07:12:10;;;;;;;4.53;2.00;;;;;;;30.34;40.48;99912.07;1717130;83;21548;-68
2022/07/24 07:14:37;;;;;;;6.53;2.20;;;;;;;30.43;40.78;99910.92;1717459;83;21083;-68
2022/07/24 07:17:04;;;;;;;6.17;2.10;;;;;;;30.51;40.45;99912.18;1717271;83;21029;-68
2022/07/24 07:19:31;;;;;;;6.12;2.37;;;;;;;30.45;40.43;99904.78;1682953;85;21073;-68
2022/07/24 07:21:58;;;;;;;2.52;2.00;;;;;;;30.48;40.82;99898.95;1670183;85;21218;-69
2022/07/24 07:24:26;;;;;;;3.30;2.20;;;;;;;30.59;40.23;99897.09;1682573;85;21077;-67
2022/07/24 07:26:53;;;;;;;3.65;1.92;;;;;;;30.96;39.66;99896.55;1685809;85;21041;-68
2022/07/24 07:29:21;;;;;;;2.10;1.90;;;;;;;31.44;38.56;99889.96;1736348;82;21141;-68
2022/07/24 07:31:48;;;;;;;2.92;2.00;;;;;;;31.95;37.40;99889.63;1736564;82;21110;-67
2022/07/24 07:34:15;;;;;;;5.80;2.10;;;;;;;32.09;37.38;99887.01;1736306;82;21146;-67
2022/07/24 07:36:41;;;;;;;2.95;2.08;;;;;;;32.08;36.65;99879.89;1736550;82;21090;-67
2022/07/24 07:39:08;;;;;;;2.22;1.80;;;;;;;32.24;36.05;99878.17;1736525;82;21057;-67
2022/07/24 07:41:35;;;;;;;5.37;1.90;;;;;;;32.36;35.47;99875.16;1736739;82;21062;-68
2022/07/24 07:44:01;;;;;;;4.22;2.00;;;;;;;32.44;35.43;99878.73;1673332;85;21624;-70
2022/07/24 07:46:29;;;;;;;4.30;1.82;;;;;;;32.50;35.84;99877.92;1736720;82;21343;-67
2022/07/24 07:48:56;;;;;;;4.60;2.20;;;;;;;32.50;36.37;99875.20;1736516;82;21038;-68
2022/07/24 07:51:22;;;;;;;4.80;1.67;;;;;;;32.57;36.03;99871.99;1736685;82;21018;-68
2022/07/24 07:53:49;;;;;;;3.67;1.50;;;;;;;32.66;33.84;99874.84;1729684;82;21101;-68
2022/07/24 07:56:15;;;;;;;4.37;1.80;;;;;;;32.21;33.61;99877.23;1711928;82;21105;-67
2022/07/24 07:58:42;;;;;;;3.35;1.67;;;;;;;32.07;34.17;99868.66;1712335;83;21753;-69
2022/07/24 08:01:08;;;;;;;2.37;1.40;;;;;;;32.17;34.10;99866.41;1711986;82;21046;-69
2022/07/24 08:03:35;;;;;;;5.30;1.77;;;;;;;32.11;33.58;99874.03;1712077;83;21047;-68
2022/07/24 08:06:04;;;;;;;2.17;1.47;;;;;;;31.89;34.32;99862.40;1712056;82;21098;-68
2022/07/24 08:08:31;;;;;;;2.62;1.47;;;;;;;31.90;34.42;99866.78;1711949;83;21561;-67
2022/07/24 08:10:58;;;;;;;4.72;1.70;;;;;;;32.16;34.12;99860.13;1712011;83;21625;-68
2022/07/24 08:13:26;;;;;;;2.98;1.50;;;;;;;32.61;33.32;99863.73;1711870;82;21045;-69
2022/07/24 08:15:54;;;;;;;3.60;1.50;;;;;;;33.10;33.15;99861.69;1711803;82;21504;-68
2022/07/24 08:18:20;;;;;;;2.95;1.35;;;;;;;33.37;31.71;99863.87;1712169;82;21515;-69
2022/07/24 08:20:48;;;;;;;4.50;1.50;;;;;;;33.23;31.38;99863.88;1712163;82;21014;-68
2022/07/24 08:23:15;;;;;;;2.50;1.52;;;;;;;33.06;31.05;99859.92;1711907;83;21256;-67
2022/07/24 08:25:42;;;;;;;3.22;1.40;;;;;;;33.12;31.93;99854.97;1714241;83;21077;-69
2022/07/24 08:28:09;;;;;;;5.80;1.60;;;;;;;33.48;31.38;99852.31;1720266;83;21117;-68
2022/07/24 08:30:36;;;;;;;4.05;1.67;;;;;;;33.88;30.25;99845.39;1720226;83;21128;-68
2022/07/24 08:33:02;;;;;;;2.33;1.70;;;;;;;34.04;29.83;99850.35;1720090;83;21596;-67
2022/07/24 08:35:30;;;;;;;3.72;1.40;;;;;;;33.92;29.90;99848.53;1720434;83;21716;-68
2022/07/24 08:37:57;;;;;;;2.45;1.47;;;;;;;34.00;29.59;99851.84;1720216;83;21069;-68
2022/07/24 08:40:24;;;;;;;3.75;1.40;;;;;;;34.22;29.37;99842.02;1720614;83;21062;-68
2022/07/24 08:42:50;;;;;;;2.75;1.60;;;;;;;34.39;29.19;99836.86;1720445;83;21026;-68
2022/07/24 08:45:17;;;;;;;2.70;1.60;;;;;;;33.91;28.70;99834.02;1720229;83;21026;-68
2022/07/24 08:47:43;;;;;;;3.55;1.70;;;;;;;33.41;29.74;99840.57;1720045;83;22137;-69
2022/07/24 08:50:10;;;;;;;2.80;1.30;;;;;;;32.85;30.00;99846.44;1720218;83;21030;-68
2022/07/24 08:52:38;;;;;;;1.57;1.27;;;;;;;32.36;30.91;99831.56;1719945;83;21129;-68
2022/07/24 08:55:07;;;;;;;3.80;1.60;;;;;;;32.35;30.83;99828.53;1720217;83;21046;-69
2022/07/24 08:57:33;;;;;;;3.58;1.70;;;;;;;32.53;30.21;99829.84;1720298;83;21077;-69
2022/07/24 09:00:00;;;;;;;7.30;2.02;;;;;;;32.49;30.36;99828.03;1720215;83;21623;-68
2022/07/24 09:02:27;;;;;;;3.00;1.60;;;;;;;32.58;31.19;99825.46;1732355;82;21574;-68
2022/07/24 09:04:59;;;;;;;1.67;1.50;;;;;;;32.77;30.26;99827.88;1749311;82;21090;-68
2022/07/24 09:07:29;;;;;;;4.45;1.57;;;;;;;32.59;27.76;99833.11;1749423;82;21101;-66
2022/07/24 09:10:09;;;;;;;3.67;1.57;;;;;;;32.59;28.11;99833.94;1750386;82;21118;-69
2022/07/24 09:12:45;;;;;;;5.60;1.70;;;;;;;32.59;28.41;99828.48;1750341;82;21877;-68
2022/07/24 09:15:19;;;;;;;3.27;1.40;;;;;;;32.55;28.25;99829.11;1750387;82;21083;-68
2022/07/24 09:17:58;;;;;;;3.90;1.70;;;;;;;32.90;28.57;99828.92;1700957;84;21056;-67
2022/07/24 09:20:27;;;;;;;4.22;1.50;;;;;;;33.33;28.37;99812.13;1750365;82;21062;-69
2022/07/24 09:22:59;;;;;;;3.65;1.70;;;;;;;33.69;27.87;99813.01;1750288;82;21535;-68
2022/07/24 09:25:28;;;;;;;4.65;1.60;;;;;;;33.81;27.87;99805.81;1725158;82;21202;-69
2022/07/24 09:28:01;;;;;;;;;;;;;;;33.53;28.10;99808.83;1707427;83;21534;-68
2022/07/24 09:30:37;;;;;;;7.22;1.90;;;;;;;33.49;29.19;99810.30;1702468;84;20180;-68
2022/07/24 09:33:13;;;;;;;6.25;1.57;;;;;;;33.67;28.74;99812.91;1703626;84;21113;-67
2022/07/24 09:35:48;;;;;;;3.98;1.60;;;;;;;34.02;27.82;99808.75;1723282;82;21627;-67
2022/07/24 09:38:18;;;;;;;3.95;1.30;;;;;;;34.17;27.49;99803.05;1737427;82;21604;-69
2022/07/24 09:40:53;;;;;;;4.92;1.40;;;;;;;34.08;27.24;99800.77;1717523;82;21076;-68
2022/07/24 09:43:30;;;;;;;3.77;2.58;;;;;;;33.89;27.67;99808.84;1743140;82;21126;-69
2022/07/24 09:46:11;;;;;;;4.95;2.30;;;;;;;33.68;28.67;99804.48;1726369;82;21128;-71
2022/07/24 09:48:54;;;;;;;3.72;1.80;;;;;;;33.72;28.89;99811.73;1728560;82;21529;-70
2022/07/24 09:51:21;;;;;;;3.77;1.65;;;;;;;34.05;28.95;99802.87;1744896;82;21081;-68
2022/07/24 09:53:58;;;;;;;5.90;2.20;;;;;;;34.33;28.12;99811.25;1722066;82;21084;-68
2022/07/24 09:56:25;;;;;;;4.25;2.37;;;;;;;34.38;28.05;99814.16;1741546;82;21063;-68
2022/07/24 09:58:54;;;;;;;3.25;1.67;;;;;;;34.29;28.41;99813.28;1725220;82;21108;-69
2022/07/24 10:01:25;;;;;;;2.83;1.50;;;;;;;34.26;28.68;99815.92;1744649;82;21055;-68
2022/07/24 10:03:53;;;;;;;2.55;1.60;;;;;;;34.27;27.98;99806.66;1744366;82;21286;-67
2022/07/24 10:06:25;;;;;;;2.52;1.37;;;;;;;34.29;28.31;99803.18;1744221;82;21077;-69
2022/07/24 10:08:52;;;;;;;6.40;2.70;;;;;;;34.13;28.38;99805.07;1744404;82;21560;-69
2022/07/24 10:11:19;;;;;;;8.90;2.37;;;;;;;33.75;29.17;99804.47;1733805;82;21118;-69
2022/07/24 10:13:46;;;;;;;7.12;5.33;;;;;;;33.61;28.96;99806.41;1736344;82;21079;-68
2022/07/24 10:16:29;;;;;;;7.67;5.37;;;;;;;33.37;29.17;99808.76;1744824;82;21508;-68
2022/07/24 10:19:00;;;;;;;3.42;1.80;;;;;;;33.14;29.76;99806.49;1724448;82;21087;-67
2022/07/24 10:21:37;;;;;;;2.98;1.90;;;;;;;33.03;30.36;99805.73;1738470;82;21124;-68
2022/07/24 10:24:27;;;;;;;2.67;1.60;;;;;;;32.92;30.52;99809.97;1733115;82;21099;-68
2022/07/24 10:26:56;;;;;;;5.17;1.75;;;;;;;32.83;30.43;99809.00;1714827;82;21104;-68
2022/07/24 10:29:23;;;;;;;5.58;1.80;;;;;;;32.63;30.74;99807.12;1712236;82;21929;-69
2022/07/24 10:31:56;;;;;;;3.80;1.70;;;;;;;32.38;30.87;99799.50;1728234;82;21060;-67
2022/07/24 10:34:40;;;;;;;6.35;1.82;;;;;;;32.16;31.61;99804.79;1711914;82;21014;-68
2022/07/24 10:37:25;;;;;;;3.35;1.67;;;;;;;32.09;32.04;99799.84;1714191;82;21037;-67
2022/07/24 10:40:26;;;;;;;6.12;1.80;;;;;;;31.96;31.86;99797.41;1718395;82;21076;-68
2022/07/24 10:43:14;;;;;;;3.65;1.90;;;;;;;31.76;32.66;99802.73;1707528;82;21235;-67
2022/07/24 10:45:55;;;;;;;3.92;2.12;;;;;;;31.84;32.45;99788.13;1716107;82;21086;-67
2022/07/24 10:48:26;;;;;;;3.47;1.57;;;;;;;31.81;31.75;99795.32;1681789;84;21105;-68
2022/07/24 10:51:13;;;;;;;6.20;2.22;;;;;;;31.90;32.00;99794.09;1662703;85;21078;-68
2022/07/24 10:53:53;;;;;;;2.75;1.80;;;;;;;32.05;31.71;99790.40;1656449;85;21089;-68
2022/07/24 10:56:29;;;;;;;5.58;2.70;;;;;;;32.11;31.90;99781.42;1717594;82;21141;-68
2022/07/24 10:59:14;;;;;;;2.90;1.57;;;;;;;32.16;32.40;99780.27;1690857;82;21140;-67
2022/07/24 11:01:53;;;;;;;7.03;2.22;;;;;;;32.10;32.55;99786.56;1714403;83;21043;-69
2022/07/24 11:04:25;;;;;;;2.83;1.60;;;;;;;32.01;32.44;99780.45;1721187;82;21050;-67
2022/07/24 11:07:14;;;;;;;3.20;1.67;;;;;;;32.03;32.49;99781.63;1742015;82;21061;-69
2022/07/24 11:10:01;;;;;;;3.40;1.62;;;;;;;31.94;32.34;99780.40;1739094;82;21009;-69
2022/07/24 11:12:30;;;;;;;6.87;1.75;;;;;;;31.74;33.01;99786.29;1713769;82;21553;-67
2022/07/24 11:17:47;;;;;;;3.00;1.42;;;;;;;31.73;33.37;99773.73;1719252;82;21538;-69
2022/07/24 11:20:18;;;;;;;3.60;1.75;;;;;;;31.86;33.79;99775.66;1736271;82;21097;-68
2022/07/24 11:22:51;;;;;;;3.25;1.60;;;;;;;31.96;33.17;99774.27;1701593;83;25663;-69
2022/07/24 11:25:24;;;;;;;5.80;2.22;;;;;;;32.03;32.68;99776.17;1684020;84;21121;-69
2022/07/24 11:28:10;;;;;;;7.95;2.25;;;;;;;32.11;32.29;99767.80;1730735;82;21074;-69
2022/07/24 11:30:43;;;;;;;4.50;1.62;;;;;;;32.14;32.17;99766.88;1736583;82;21071;-69
2022/07/24 11:33:11;;;;;;;5.35;2.98;;;;;;;32.25;31.58;99766.77;1735840;82;21046;-68
2022/07/24 11:35:38;;;;;;;6.15;1.92;;;;;;;32.24;31.66;99767.83;1736924;82;21086;-68
2022/07/24 11:38:07;;;;;;;4.58;1.80;;;;;;;32.28;31.40;99763.66;1739099;82;21134;-69
2022/07/24 11:40:36;;;;;;;5.50;2.08;;;;;;;32.29;31.77;99760.40;1736935;82;21540;-69